createdAt,value
2022-12-31T00:00:52.838Z,99259.78
2022-12-31T00:03:22.517Z,99267.41
2022-12-31T00:05:52.652Z,99272.34
2022-12-31T00:08:20.996Z,99262.31
2022-12-31T00:10:49.384Z,99264.38
2022-12-31T00:13:18.120Z,99255.72
2022-12-31T00:15:46.900Z,99272.09
2022-12-31T00:18:15.214Z,99272.44
2022-12-31T00:20:43.713Z,99268.56
2022-12-31T00:23:14.045Z,99267.13
2022-12-31T00:25:43.063Z,99266.28
2022-12-31T00:28:11.612Z,99257.75
2022-12-31T00:30:39.964Z,99278.97
2022-12-31T00:33:08.721Z,99268.91
2022-12-31T00:35:37.234Z,99260.16
2022-12-31T00:38:05.793Z,99257.56
2022-12-31T00:40:35.757Z,99271.88
2022-12-31T00:43:04.356Z,99270.84
2022-12-31T00:45:32.851Z,99281.06
2022-12-31T00:48:01.199Z,99256.50
2022-12-31T00:50:29.577Z,99270.78
2022-12-31T00:52:57.866Z,99265.47
2022-12-31T00:55:26.619Z,99264.41
2022-12-31T00:57:56.673Z,99273.06
2022-12-31T01:00:25.227Z,99263.81
2022-12-31T01:02:53.697Z,99244.19
2022-12-31T01:05:22.076Z,99272.13
2022-12-31T01:07:50.694Z,99254.63
2022-12-31T01:10:39.295Z,99271.28
2022-12-31T01:13:09.312Z,99270.84
2022-12-31T01:15:39.243Z,99243.78
2022-12-31T01:18:08.803Z,99252.34
2022-12-31T01:20:38.919Z,99265.38
2022-12-31T01:23:07.645Z,99253.59
2022-12-31T01:25:39.286Z,99254.63
2022-12-31T01:28:10.048Z,99293.59
2022-12-31T01:30:41.636Z,99289.53
2022-12-31T01:33:10.224Z,99311.09
2022-12-31T01:35:38.540Z,99306.47
2022-12-31T01:38:07.064Z,99334.25
2022-12-31T01:40:38.519Z,99333.59
2022-12-31T01:43:16.831Z,99357.78
2022-12-31T01:45:47.013Z,99365.59
2022-12-31T01:48:19.593Z,99371.13
2022-12-31T01:50:48.480Z,99358.94
2022-12-31T01:53:18.978Z,99350.91
2022-12-31T01:55:51.712Z,99336.81
2022-12-31T01:58:24.395Z,99332.69
2022-12-31T02:00:54.558Z,99321.78
2022-12-31T02:03:25.041Z,99331.34
2022-12-31T02:05:59.626Z,99339.75
2022-12-31T02:08:27.963Z,99346.38
2022-12-31T02:10:56.598Z,99333.56
2022-12-31T02:13:26.800Z,99336.78
2022-12-31T02:16:01.911Z,99359.63
2022-12-31T02:18:38.142Z,99355.91
2022-12-31T02:21:38.380Z,99366.88
2022-12-31T02:24:32.971Z,99367.09
2022-12-31T02:27:07.084Z,99348.25
2022-12-31T02:30:16.981Z,99347.56
2022-12-31T02:33:09.997Z,99295.63
2022-12-31T02:35:48.338Z,99387.28
2022-12-31T02:38:22.170Z,99377.09
2022-12-31T02:40:50.862Z,99369.28
2022-12-31T02:43:19.238Z,99388.69
2022-12-31T02:45:52.340Z,99394.63
2022-12-31T02:48:41.114Z,99395.06
2022-12-31T02:51:21.882Z,99402.78
2022-12-31T02:54:23.347Z,99388.06
2022-12-31T02:57:03.847Z,99388.50
2022-12-31T02:59:52.509Z,99378.41
2022-12-31T03:02:23.391Z,99390.81
2022-12-31T03:04:54.971Z,99384.19
2022-12-31T03:07:25.802Z,99389.75
2022-12-31T03:09:54.338Z,99388.06
2022-12-31T03:12:43.479Z,99384.19
2022-12-31T03:15:21.018Z,99391.00
2022-12-31T03:17:56.047Z,99386.94
2022-12-31T03:20:45.939Z,99400.91
2022-12-31T03:23:20.585Z,99400.72
2022-12-31T03:25:48.670Z,99403.41
2022-12-31T03:28:19.259Z,99396.31
2022-12-31T03:30:49.962Z,99407.16
2022-12-31T03:33:18.991Z,99400.19
2022-12-31T03:35:49.930Z,99408.00
2022-12-31T03:38:19.050Z,99412.38
2022-12-31T03:40:49.883Z,99405.09
2022-12-31T03:43:19.381Z,99411.94
2022-12-31T03:45:50.279Z,99422.38
2022-12-31T03:48:19.405Z,99421.28
2022-12-31T03:50:49.457Z,99413.59
2022-12-31T03:53:18.175Z,99424.03
2022-12-31T03:55:46.523Z,99415.56
2022-12-31T03:58:14.823Z,99427.41
2022-12-31T04:00:43.763Z,99415.19
2022-12-31T04:03:12.156Z,99422.66
2022-12-31T04:05:41.299Z,99416.34
2022-12-31T04:08:11.164Z,99419.75
2022-12-31T04:10:39.501Z,99396.16
2022-12-31T04:13:07.761Z,99411.00
2022-12-31T04:15:36.605Z,99412.78
2022-12-31T04:18:05.384Z,99416.13
2022-12-31T04:20:33.784Z,99415.66
2022-12-31T04:23:02.103Z,99411.72
2022-12-31T04:25:32.133Z,99425.78
2022-12-31T04:28:00.504Z,99409.22
2022-12-31T04:30:29.017Z,99410.44
2022-12-31T04:32:57.622Z,99413.69
2022-12-31T04:35:25.975Z,99408.00
2022-12-31T04:37:54.606Z,99404.50
2022-12-31T04:40:24.545Z,99406.25
2022-12-31T04:42:54.507Z,99402.81
2022-12-31T04:45:22.856Z,99404.88
2022-12-31T04:47:51.191Z,99414.44
2022-12-31T04:50:19.485Z,99423.81
2022-12-31T04:52:47.776Z,99433.81
2022-12-31T04:55:16.556Z,99424.53
2022-12-31T04:57:46.373Z,99422.69
2022-12-31T05:00:18.118Z,99426.03
2022-12-31T05:02:46.755Z,99424.25
2022-12-31T05:05:15.428Z,99401.66
2022-12-31T05:07:44.056Z,99403.41
2022-12-31T05:10:12.369Z,99394.31
2022-12-31T05:12:40.655Z,99407.91
2022-12-31T05:15:10.072Z,99408.00
2022-12-31T05:17:39.809Z,99387.69
2022-12-31T05:20:09.113Z,99382.78
2022-12-31T05:22:37.663Z,99382.66
2022-12-31T05:25:07.169Z,99381.31
2022-12-31T05:27:35.827Z,99375.25
2022-12-31T05:30:04.405Z,99370.88
2022-12-31T05:32:32.990Z,99371.72
2022-12-31T05:35:02.862Z,99359.22
2022-12-31T05:37:32.062Z,99355.75
2022-12-31T05:40:00.603Z,99372.41
2022-12-31T05:42:29.199Z,99381.97
2022-12-31T05:44:57.787Z,99394.00
2022-12-31T05:47:26.157Z,99390.09
2022-12-31T05:49:54.502Z,99404.53
2022-12-31T05:52:24.609Z,99422.44
2022-12-31T05:54:53.542Z,99423.28
2022-12-31T05:57:21.849Z,99431.41
2022-12-31T05:59:50.221Z,99430.03
2022-12-31T06:02:18.512Z,99438.31
2022-12-31T06:04:47.322Z,99409.88
2022-12-31T06:07:16.429Z,99422.06
2022-12-31T06:09:46.743Z,99440.94
2022-12-31T06:12:15.394Z,99420.94
2022-12-31T06:14:45.911Z,99426.53
2022-12-31T06:17:15.232Z,99431.56
2022-12-31T06:19:43.813Z,99439.06
2022-12-31T06:22:14.205Z,99420.22
2022-12-31T06:24:42.632Z,99425.59
2022-12-31T06:27:12.643Z,99429.59
2022-12-31T06:29:41.003Z,99411.84
2022-12-31T06:32:09.800Z,99414.66
2022-12-31T06:34:38.448Z,99424.88
2022-12-31T06:37:06.817Z,99418.28
2022-12-31T06:39:35.455Z,99410.38
2022-12-31T06:42:03.783Z,99414.44
2022-12-31T06:44:33.799Z,99400.91
2022-12-31T06:47:02.094Z,99395.41
2022-12-31T06:49:30.677Z,99413.16
2022-12-31T06:51:59.000Z,99411.47
2022-12-31T06:54:27.290Z,99399.88
2022-12-31T06:56:56.079Z,99400.31
2022-12-31T06:59:28.115Z,99397.06
2022-12-31T07:02:22.456Z,99402.00
2022-12-31T07:05:11.222Z,99400.19
2022-12-31T07:07:50.020Z,99372.00
2022-12-31T07:10:33.125Z,99394.06
2022-12-31T07:13:20.226Z,99379.50
2022-12-31T07:16:01.049Z,99367.13
2022-12-31T07:18:38.878Z,99359.94
2022-12-31T07:21:13.711Z,99372.84
2022-12-31T07:23:43.310Z,99377.41
2022-12-31T07:26:22.913Z,99375.00
2022-12-31T07:29:02.210Z,99393.28
2022-12-31T07:31:42.405Z,99396.00
2022-12-31T07:34:23.956Z,99392.75
2022-12-31T07:37:02.693Z,99403.88
2022-12-31T07:39:39.594Z,99405.03
2022-12-31T07:42:16.611Z,99413.84
2022-12-31T07:44:59.845Z,99392.50
2022-12-31T07:47:30.322Z,99398.34
2022-12-31T07:50:00.807Z,99391.38
2022-12-31T07:52:29.636Z,99394.91
2022-12-31T07:54:58.222Z,99397.81
2022-12-31T07:57:35.773Z,99405.31
2022-12-31T08:00:09.364Z,99397.59
2022-12-31T08:03:10.401Z,99415.63
2022-12-31T08:05:50.766Z,99394.72
2022-12-31T08:08:30.496Z,99395.34
2022-12-31T08:11:12.383Z,99399.72
2022-12-31T08:13:42.930Z,99399.53
2022-12-31T08:16:15.453Z,99387.34
2022-12-31T08:18:44.198Z,99390.59
2022-12-31T08:21:22.947Z,99392.94
2022-12-31T08:24:00.278Z,99390.22
2022-12-31T08:26:37.041Z,99392.13
2022-12-31T08:29:24.157Z,99379.00
2022-12-31T08:32:00.962Z,99390.78
2022-12-31T08:34:40.752Z,99376.41
2022-12-31T08:37:15.055Z,99387.25
2022-12-31T08:39:58.705Z,99377.22
2022-12-31T08:42:33.724Z,99381.22
2022-12-31T08:45:09.938Z,99374.50
2022-12-31T08:47:53.835Z,99385.09
2022-12-31T08:50:25.666Z,99379.69
2022-12-31T08:52:56.531Z,99388.16
2022-12-31T08:55:25.546Z,99397.91
2022-12-31T08:58:08.331Z,99387.50
2022-12-31T09:00:38.833Z,99386.94
2022-12-31T09:03:21.174Z,99396.97
2022-12-31T09:05:59.165Z,99405.41
2022-12-31T09:08:43.006Z,99419.84
2022-12-31T09:11:22.587Z,99416.31
2022-12-31T09:14:14.245Z,99430.25
2022-12-31T09:16:51.626Z,99429.53
2022-12-31T09:19:21.357Z,99430.47
2022-12-31T09:21:50.362Z,99428.78
2022-12-31T09:24:20.560Z,99423.38
2022-12-31T09:26:58.780Z,99420.06
2022-12-31T09:29:39.060Z,99427.03
2022-12-31T09:32:15.380Z,99417.97
2022-12-31T09:34:51.346Z,99415.50
2022-12-31T09:37:26.250Z,99411.13
2022-12-31T09:40:03.031Z,99425.06
2022-12-31T09:42:59.250Z,99426.34
2022-12-31T09:45:50.628Z,99402.56
2022-12-31T09:48:52.067Z,99394.94
2022-12-31T09:51:30.379Z,99413.38
2022-12-31T09:54:28.497Z,99412.72
2022-12-31T09:57:16.935Z,99426.19
2022-12-31T09:59:52.698Z,99426.41
2022-12-31T10:02:31.293Z,99424.16
2022-12-31T10:05:17.713Z,99399.56
2022-12-31T10:07:58.733Z,99380.41
2022-12-31T10:10:32.202Z,99394.16
2022-12-31T10:13:29.500Z,99381.34
2022-12-31T10:16:25.943Z,99385.53
2022-12-31T10:19:27.901Z,99392.38
2022-12-31T10:22:08.046Z,99419.53
2022-12-31T10:24:52.219Z,99392.56
2022-12-31T10:27:34.379Z,99403.53
2022-12-31T10:30:16.383Z,99395.75
2022-12-31T10:32:52.393Z,99391.84
2022-12-31T10:35:30.683Z,99393.25
2022-12-31T10:38:10.315Z,99384.13
2022-12-31T10:41:23.361Z,99400.50
2022-12-31T10:44:16.003Z,99419.34
2022-12-31T10:47:09.038Z,99417.66
2022-12-31T10:50:15.218Z,99407.91
2022-12-31T10:53:09.149Z,99402.78
2022-12-31T10:56:07.828Z,99403.22
2022-12-31T10:59:21.275Z,99410.22
2022-12-31T11:01:56.887Z,99405.03
2022-12-31T11:04:56.661Z,99425.66
2022-12-31T11:07:48.376Z,99415.25
2022-12-31T11:11:02.942Z,99419.50
2022-12-31T11:14:03.873Z,99417.66
2022-12-31T11:16:47.141Z,99400.03
2022-12-31T11:19:22.693Z,99397.22
2022-12-31T11:22:08.413Z,99381.69
2022-12-31T11:24:53.112Z,99391.25
2022-12-31T11:27:34.532Z,99394.81
2022-12-31T11:30:15.463Z,99392.50
2022-12-31T11:32:52.754Z,99385.13
2022-12-31T11:35:29.540Z,99383.84
2022-12-31T11:38:11.402Z,99384.56
2022-12-31T11:40:54.233Z,99389.97
2022-12-31T11:43:31.614Z,99399.38
2022-12-31T11:46:26.699Z,99373.25
2022-12-31T11:49:10.574Z,99367.50
2022-12-31T11:52:04.152Z,99369.34
2022-12-31T11:54:54.481Z,99328.53
2022-12-31T11:57:28.154Z,99319.88
2022-12-31T12:00:00.701Z,99307.44
2022-12-31T12:02:32.513Z,99316.47
2022-12-31T12:05:11.506Z,99303.78
2022-12-31T12:07:40.056Z,99306.03
2022-12-31T12:10:22.899Z,99317.00
2022-12-31T12:12:52.207Z,99315.03
2022-12-31T12:15:24.681Z,99301.28
2022-12-31T12:17:56.168Z,99302.56
2022-12-31T12:20:32.795Z,99273.50
2022-12-31T12:23:13.939Z,99288.63
2022-12-31T12:25:45.473Z,99284.78
2022-12-31T12:28:24.799Z,99280.69
2022-12-31T12:31:00.752Z,99265.00
2022-12-31T12:33:31.026Z,99258.56
2022-12-31T12:36:10.902Z,99209.94
2022-12-31T12:38:40.680Z,99205.59
2022-12-31T12:41:13.477Z,99223.47
2022-12-31T12:43:41.871Z,99224.31
2022-12-31T12:46:21.790Z,99207.47
2022-12-31T12:48:56.623Z,99201.00
2022-12-31T12:51:45.442Z,99188.09
2022-12-31T12:54:28.314Z,99188.44
2022-12-31T12:57:08.048Z,99208.63
2022-12-31T13:00:03.394Z,99219.97
2022-12-31T13:02:54.921Z,99211.88
2022-12-31T13:05:37.754Z,99223.13
2022-12-31T13:08:17.618Z,99213.34
2022-12-31T13:10:58.902Z,99224.13
2022-12-31T13:13:38.766Z,99208.44
2022-12-31T13:16:16.651Z,99262.16
2022-12-31T13:18:56.138Z,99270.72
2022-12-31T13:21:45.757Z,99269.09
2022-12-31T13:24:23.611Z,99258.34
2022-12-31T13:27:00.146Z,99264.31
2022-12-31T13:29:34.529Z,99263.25
2022-12-31T13:32:06.997Z,99264.09
2022-12-31T13:34:40.070Z,99263.03
2022-12-31T13:37:25.184Z,99269.31
2022-12-31T13:40:01.181Z,99261.59
2022-12-31T13:42:36.991Z,99255.75
2022-12-31T13:45:14.808Z,99263.72
2022-12-31T13:47:47.667Z,99264.84
2022-12-31T13:50:22.285Z,99252.66
2022-12-31T13:52:55.556Z,99260.19
2022-12-31T13:55:27.986Z,99268.72
2022-12-31T13:57:59.773Z,99270.38
2022-12-31T14:00:35.400Z,99269.97
2022-12-31T14:03:13.121Z,99281.75
2022-12-31T14:05:50.073Z,99270.13
2022-12-31T14:08:19.481Z,99278.09
2022-12-31T14:11:01.998Z,99260.63
2022-12-31T14:13:44.862Z,99260.84
2022-12-31T14:16:22.504Z,99267.50
2022-12-31T14:19:02.382Z,99257.09
2022-12-31T14:21:35.667Z,99272.38
2022-12-31T14:24:14.427Z,99252.72
2022-12-31T14:26:47.005Z,99243.78
2022-12-31T14:29:26.842Z,99261.47
2022-12-31T14:32:24.043Z,99259.16
2022-12-31T14:35:02.649Z,99267.31
2022-12-31T14:37:40.220Z,99261.34
2022-12-31T14:40:20.275Z,99274.56
2022-12-31T14:42:59.855Z,99284.34
2022-12-31T14:45:38.409Z,99277.09
2022-12-31T14:48:22.262Z,99277.56
2022-12-31T14:50:51.274Z,99273.09
2022-12-31T14:53:24.524Z,99282.78
2022-12-31T14:56:03.018Z,99273.31
2022-12-31T14:58:33.795Z,99293.00
2022-12-31T15:01:05.557Z,99295.31
2022-12-31T15:03:45.028Z,99290.19
2022-12-31T15:06:42.322Z,99298.75
2022-12-31T15:09:21.721Z,99295.81
2022-12-31T15:12:07.776Z,99312.28
2022-12-31T15:15:09.302Z,99305.50
2022-12-31T15:17:48.046Z,99314.88
2022-12-31T15:20:38.714Z,99295.41
2022-12-31T15:23:16.377Z,99319.38
2022-12-31T15:25:49.533Z,99331.34
2022-12-31T15:28:37.109Z,99323.97
2022-12-31T15:31:18.816Z,99312.72
2022-12-31T15:33:57.857Z,99314.81
2022-12-31T15:36:30.089Z,99312.81
2022-12-31T15:39:09.190Z,99325.72
2022-12-31T15:41:46.157Z,99331.06
2022-12-31T15:44:26.394Z,99340.00
2022-12-31T15:47:01.325Z,99339.13
2022-12-31T15:49:38.718Z,99339.22
2022-12-31T15:52:15.175Z,99363.69
2022-12-31T15:54:46.818Z,99348.06
2022-12-31T15:57:19.694Z,99361.97
2022-12-31T15:59:48.843Z,99370.25
2022-12-31T16:02:23.104Z,99386.69
2022-12-31T16:04:52.078Z,99374.81
2022-12-31T16:07:22.477Z,99369.53
2022-12-31T16:09:55.305Z,99366.94
2022-12-31T16:12:32.522Z,99371.63
2022-12-31T16:15:02.513Z,99359.09
2022-12-31T16:17:33.447Z,99375.91
2022-12-31T16:20:03.527Z,99359.75
2022-12-31T16:22:40.199Z,99370.81
2022-12-31T16:25:30.726Z,99386.69
2022-12-31T16:28:04.559Z,99382.16
2022-12-31T16:30:35.975Z,99405.47
2022-12-31T16:33:06.656Z,99398.59
2022-12-31T16:35:38.153Z,99389.38
2022-12-31T16:38:16.565Z,99393.44
2022-12-31T16:41:06.356Z,99411.19
2022-12-31T16:43:39.195Z,99411.38
2022-12-31T16:46:15.912Z,99403.00
2022-12-31T16:48:48.789Z,99406.34
2022-12-31T16:51:23.713Z,99422.47
2022-12-31T16:53:54.233Z,99412.56
2022-12-31T16:56:27.723Z,99417.00
2022-12-31T16:59:03.826Z,99418.97
2022-12-31T17:01:35.499Z,99417.28
2022-12-31T17:04:07.819Z,99426.00
2022-12-31T17:06:36.911Z,99426.84
2022-12-31T17:09:21.003Z,99423.41
2022-12-31T17:11:54.245Z,99427.94
2022-12-31T17:14:25.234Z,99429.03
2022-12-31T17:17:03.041Z,99434.56
2022-12-31T17:19:37.465Z,99441.31
2022-12-31T17:22:10.073Z,99444.41
2022-12-31T17:24:40.690Z,99453.38
2022-12-31T17:27:10.663Z,99439.97
2022-12-31T17:29:39.108Z,99434.59
2022-12-31T17:32:28.180Z,99434.69
2022-12-31T17:34:56.551Z,99421.41
2022-12-31T17:37:27.863Z,99428.47
2022-12-31T17:40:40.591Z,99438.88
2022-12-31T17:42:50.548Z,99446.84
2022-12-31T17:45:23.685Z,99444.59
2022-12-31T17:47:55.783Z,99456.03
2022-12-31T17:50:27.761Z,99451.34
2022-12-31T17:52:58.758Z,99453.44
2022-12-31T17:55:29.755Z,99462.81
2022-12-31T17:57:59.114Z,99463.66
2022-12-31T18:00:28.803Z,99464.97
2022-12-31T18:02:57.241Z,99457.91
2022-12-31T18:05:26.228Z,99469.13
2022-12-31T18:07:55.368Z,99480.75
2022-12-31T18:10:31.236Z,99474.34
2022-12-31T18:13:01.754Z,99467.00
2022-12-31T18:15:30.097Z,99477.03
2022-12-31T18:17:58.443Z,99485.50
2022-12-31T18:20:27.804Z,99488.53
2022-12-31T18:22:57.109Z,99475.66
2022-12-31T18:25:25.729Z,99484.84
2022-12-31T18:27:55.421Z,99499.03
2022-12-31T18:30:23.779Z,99513.31
2022-12-31T18:32:52.255Z,99503.41
2022-12-31T18:38:14.084Z,99519.00
2022-12-31T18:40:46.567Z,99524.09
2022-12-31T18:43:18.901Z,99526.50
2022-12-31T18:45:50.378Z,99520.13
2022-12-31T18:48:19.600Z,99533.22
2022-12-31T18:50:48.965Z,99533.22
2022-12-31T18:53:20.144Z,99521.06
2022-12-31T18:55:50.508Z,99535.06
2022-12-31T18:58:21.239Z,99537.50
2022-12-31T19:00:50.786Z,99547.13
2022-12-31T19:03:22.470Z,99550.50
2022-12-31T19:05:54.330Z,99560.13
2022-12-31T19:08:25.607Z,99558.66
2022-12-31T19:10:57.406Z,99558.91
2022-12-31T19:13:39.688Z,99563.75
2022-12-31T19:16:16.404Z,99570.88
2022-12-31T19:18:46.358Z,99576.56
2022-12-31T19:21:18.737Z,99571.28
2022-12-31T19:24:00.638Z,99583.34
2022-12-31T19:26:34.763Z,99582.34
2022-12-31T19:29:09.364Z,99593.91
2022-12-31T19:31:38.660Z,99601.34
2022-12-31T19:34:17.680Z,99587.25
2022-12-31T19:36:47.686Z,99591.31
2022-12-31T19:39:21.593Z,99586.34
2022-12-31T19:42:00.191Z,99598.03
2022-12-31T19:44:32.907Z,99588.66
2022-12-31T19:47:07.595Z,99592.66
2022-12-31T19:49:36.829Z,99605.56
2022-12-31T19:52:40.444Z,99611.94
2022-12-31T19:55:45.505Z,99602.38
2022-12-31T20:15:42.685Z,99669.28
2022-12-31T20:18:50.969Z,99671.91
2022-12-31T20:21:35.235Z,99666.78
2022-12-31T20:24:05.710Z,99666.88
2022-12-31T20:26:49.098Z,99672.06
2022-12-31T20:29:22.886Z,99681.09
2022-12-31T20:32:03.536Z,99682.78
2022-12-31T20:34:37.002Z,99687.19
2022-12-31T20:37:14.003Z,99693.97
2022-12-31T20:39:48.208Z,99703.38
2022-12-31T20:42:16.972Z,99704.13
2022-12-31T20:44:50.185Z,99712.75
2022-12-31T20:47:22.167Z,99720.31
2022-12-31T20:50:15.529Z,99726.41
2022-12-31T20:53:00.610Z,99730.91
2022-12-31T20:55:33.592Z,99746.25
2022-12-31T20:58:21.048Z,99757.09
2022-12-31T21:00:52.659Z,99757.03
2022-12-31T21:04:02.342Z,99763.06
2022-12-31T21:06:38.053Z,99776.47
2022-12-31T21:09:09.014Z,99788.53
2022-12-31T21:11:56.899Z,99790.22
2022-12-31T21:14:50.348Z,99803.34
2022-12-31T21:17:30.484Z,99800.66
2022-12-31T21:19:59.365Z,99801.81
2022-12-31T21:22:33.947Z,99811.19
2022-12-31T21:25:06.665Z,99818.06
2022-12-31T21:27:45.863Z,99832.78
2022-12-31T21:30:28.320Z,99836.28
2022-12-31T21:33:05.386Z,99836.38
2022-12-31T21:35:45.697Z,99835.38
2022-12-31T21:38:20.047Z,99844.38
2022-12-31T21:40:48.942Z,99848.50
2022-12-31T21:43:26.564Z,99845.00
2022-12-31T21:46:18.205Z,99863.03
2022-12-31T21:48:51.892Z,99857.69
2022-12-31T21:51:23.514Z,99861.81
2022-12-31T21:54:05.543Z,99866.06
2022-12-31T21:56:38.360Z,99866.69
2022-12-31T21:59:25.979Z,99859.81
2022-12-31T22:02:13.833Z,99859.81
2022-12-31T22:05:17.409Z,99866.69
2022-12-31T22:07:45.080Z,99868.41
2022-12-31T22:10:18.356Z,99883.03
2022-12-31T22:12:50.081Z,99894.72
2022-12-31T22:15:20.949Z,99875.75
2022-12-31T22:17:49.493Z,99889.66
2022-12-31T22:20:29.337Z,99898.84
2022-12-31T22:23:09.289Z,99900.34
2022-12-31T22:26:03.558Z,99888.38
2022-12-31T22:28:39.040Z,99909.81
2022-12-31T22:31:21.933Z,99906.25
2022-12-31T22:34:00.069Z,99911.38
2022-12-31T22:36:31.314Z,99912.06
2022-12-31T22:39:01.365Z,99917.16
2022-12-31T22:41:39.441Z,99909.78
2022-12-31T22:44:15.268Z,99922.50
2022-12-31T22:46:46.894Z,99921.38
2022-12-31T22:49:42.464Z,99920.25
2022-12-31T22:52:13.296Z,99918.34
2022-12-31T22:54:43.662Z,99923.22
2022-12-31T22:57:19.758Z,99926.44
2022-12-31T22:59:51.456Z,99918.63
2022-12-31T23:02:20.822Z,99912.63
2022-12-31T23:05:15.914Z,99932.47
2022-12-31T23:07:47.334Z,99933.00
2022-12-31T23:10:40.465Z,99935.00
2022-12-31T23:13:32.133Z,99945.28
2022-12-31T23:16:32.503Z,99940.50
2022-12-31T23:19:37.626Z,99961.31
2022-12-31T23:22:42.991Z,99961.41
2022-12-31T23:25:13.756Z,99956.59
2022-12-31T23:27:48.538Z,99960.94
2022-12-31T23:30:35.197Z,99984.25
2022-12-31T23:33:10.468Z,99981.22
2022-12-31T23:35:42.734Z,99987.63
2022-12-31T23:38:16.055Z,99978.63
2022-12-31T23:40:44.777Z,99981.22
2022-12-31T23:43:22.617Z,99963.97
2022-12-31T23:45:53.211Z,99972.88
2022-12-31T23:48:22.458Z,99956.34
2022-12-31T23:50:56.019Z,99958.94
2022-12-31T23:53:25.018Z,99963.03
2022-12-31T23:55:58.837Z,99974.81
2022-12-31T23:58:30.099Z,99968.66
